Terminal Aerodrome Forecast
Issued by NWS

Home | Current Version | Previous Version | Text Only | Print | Product List | Glossary On
Versions: 1 2 3 4 5 6 7 8 9 10 11 12 13 14 15 16
134
FTUS46 KLOX 281436 AAB
TAFSBA
TAF AMD
KSBA 281436Z 2815/2912 07005KT P6SM OVC009
     FM281700 12006KT P6SM OVC011
     FM282000 25008KT P6SM BKN015
     FM290300 VRB03KT P6SM OVC015=

USA.gov is the U.S. government's official web portal to all federal, state and local government web resources and services.